Time;durP1;ratioP1;P1;durP2;ratioP2;P2;SDS_P1;SDS_P2;PMS_P1;PMS_P2;Temp;Humidity;BMP_temperature;BMP_pressure;BME280_temperature;BME280_humidity;BME280_pressure;Samples;Min_cycle;Max_cycle;Signal;HPM_P1;HPM_P2
2021/10/30 00:00:08;;;;;;;;;;;;;;;-2.07;61.26;100484.84;5019258;28;19920;-79
2021/10/30 00:02:35;;;;;;;;;;;;;;;-2.11;61.63;100483.16;5019507;28;20376;-78
2021/10/30 00:05:01;;;;;;;;;;;;;;;-2.14;61.47;100484.06;5035477;28;19920;-77
2021/10/30 00:07:28;;;;;;;;;;;;;;;-2.11;61.68;100472.69;5052607;28;19921;-79
2021/10/30 00:09:54;;;;;;;;;;;;;;;-2.12;61.78;100466.56;5035606;28;19924;-79
2021/10/30 00:12:20;;;;;;;;;;;;;;;-2.08;61.89;100470.88;5035429;28;20415;-79
2021/10/30 00:14:48;;;;;;;;;;;;;;;-2.04;61.56;100471.72;5035521;28;20551;-79
2021/10/30 00:17:14;;;;;;;;;;;;;;;-1.96;61.83;100483.00;5019088;28;19928;-78
2021/10/30 00:19:40;;;;;;;;;;;;;;;-1.96;61.37;100481.25;5018625;28;19921;-78
2021/10/30 00:22:06;;;;;;;;;;;;;;;-1.94;61.63;100483.00;5052843;28;20319;-79
2021/10/30 00:24:32;;;;;;;;;;;;;;;-1.94;61.67;100476.00;5019536;28;19921;-79
2021/10/30 00:26:58;;;;;;;;;;;;;;;-1.92;61.94;100475.97;5051697;28;19948;-78
2021/10/30 00:29:25;;;;;;;;;;;;;;;-1.80;61.65;100468.84;5051960;28;20406;-77
2021/10/30 00:31:50;;;;;;;;;;;;;;;-1.74;61.68;100462.66;5068635;28;19960;-78
2021/10/30 00:34:16;;;;;;;;;;;;;;;-1.67;62.03;100471.31;5035195;28;19924;-78
2021/10/30 00:36:42;;;;;;;;;;;;;;;-1.73;61.65;100480.09;5018415;28;20031;-78
2021/10/30 00:39:08;;;;;;;;;;;;;;;-1.63;62.09;100476.50;5035318;28;19938;-78
2021/10/30 00:41:34;;;;;;;;;;;;;;;-1.57;61.73;100460.69;5035649;28;19920;-78
2021/10/30 00:44:09;;;;;;;;;;;;;;;-1.57;61.80;100459.84;5035145;28;19921;-78
2021/10/30 00:46:36;;;;;;;;;;;;;;;-1.67;62.17;100452.97;5018637;28;20019;-79
2021/10/30 00:49:02;;;;;;;;;;;;;;;-1.63;62.01;100454.66;5018785;28;20425;-78
2021/10/30 00:51:29;;;;;;;;;;;;;;;-1.57;62.30;100451.97;5022134;28;19921;-80
2021/10/30 00:53:55;;;;;;;;;;;;;;;-1.55;62.01;100452.81;5039211;28;19920;-78
2021/10/30 00:56:21;;;;;;;;;;;;;;;-1.66;62.69;100452.06;5022463;28;19920;-78
2021/10/30 00:58:47;;;;;;;;;;;;;;;-1.60;62.80;100449.38;5022274;28;19924;-78
2021/10/30 01:01:12;;;;;;;;;;;;;;;-1.67;63.03;100445.97;5022174;28;19928;-79
2021/10/30 01:03:39;;;;;;;;;;;;;;;-1.54;63.34;100441.44;5038764;28;19920;-79
2021/10/30 01:06:05;;;;;;;;;;;;;;;-1.62;63.65;100440.66;5055333;28;20018;-78
2021/10/30 01:08:31;;;;;;;;;;;;;;;-1.55;63.48;100450.19;5039010;28;19967;-79
2021/10/30 01:10:57;;;;;;;;;;;;;;;-1.34;62.93;100449.03;5021890;28;19928;-76
2021/10/30 01:13:23;;;;;;;;;;;;;;;-1.24;63.24;100446.28;5021856;28;20012;-78
2021/10/30 01:15:49;;;;;;;;;;;;;;;-1.15;62.54;100440.03;5071439;28;19927;-77
2021/10/30 01:18:15;;;;;;;;;;;;;;;-1.10;62.70;100448.69;5055286;28;19921;-78
2021/10/30 01:20:40;;;;;;;;;;;;;;;-1.03;62.35;100441.59;5021853;28;20011;-79
2021/10/30 01:23:06;;;;;;;;;;;;;;;-1.16;62.63;100442.69;5054652;28;19972;-79
2021/10/30 01:25:32;;;;;;;;;;;;;;;-1.24;62.88;100448.91;5038275;28;19921;-78
2021/10/30 01:27:58;;;;;;;;;;;;;;;-1.23;63.10;100442.75;5038158;28;20333;-78
2021/10/30 01:30:24;;;;;;;;;;;;;;;-1.10;62.82;100448.69;5038109;28;19921;-78
2021/10/30 01:32:52;;;;;;;;;;;;;;;-0.98;62.92;100434.50;5022418;28;19978;-79
2021/10/30 01:35:23;;;;;;;;;;;;;;;-0.89;62.95;100437.00;5021702;28;20446;-79
2021/10/30 01:37:49;;;;;;;;;;;;;;;-0.81;62.63;100427.25;5021391;28;19999;-78
2021/10/30 01:40:15;;;;;;;;;;;;;;;-0.77;62.97;100428.91;5021196;28;19928;-77
2021/10/30 01:42:41;;;;;;;;;;;;;;;-0.65;62.82;100432.22;5021401;28;19940;-79
2021/10/30 01:45:11;;;;;;;;;;;;;;;-0.77;63.01;100428.91;5054987;28;19921;-78
2021/10/30 01:47:40;;;;;;;;;;;;;;;-0.75;62.92;100442.03;5021195;28;20342;-79
2021/10/30 01:50:06;;;;;;;;;;;;;;;-0.65;62.60;100437.50;5038443;28;19921;-79
2021/10/30 01:52:31;;;;;;;;;;;;;;;-0.66;63.06;100427.88;5054224;28;20306;-78
2021/10/30 01:54:57;;;;;;;;;;;;;;;-0.65;62.95;100424.34;5070732;28;20019;-79
2021/10/30 01:57:23;;;;;;;;;;;;;;;-0.56;62.69;100403.22;5022039;28;20019;-80
2021/10/30 01:59:49;;;;;;;;;;;;;;;-0.58;63.02;100402.34;5055700;28;20276;-79
2021/10/30 02:02:15;;;;;;;;;;;;;;;-0.61;63.17;100398.00;5021108;28;19920;-80
2021/10/30 02:04:41;;;;;;;;;;;;;;;-0.74;63.88;100397.38;5021051;28;19921;-78
2021/10/30 02:07:07;;;;;;;;;;;;;;;-0.66;63.62;100393.75;5037471;28;19964;-78
2021/10/30 02:09:35;;;;;;;;;;;;;;;-0.62;63.90;100396.28;5021620;28;19971;-78
2021/10/30 02:12:01;;;;;;;;;;;;;;;-0.54;64.01;100391.75;5022304;28;20303;-79
2021/10/30 02:14:27;;;;;;;;;;;;;;;-0.47;63.78;100384.66;5054837;28;19921;-79
2021/10/30 02:16:53;;;;;;;;;;;;;;;-0.44;63.63;100389.84;5038265;28;20426;-78
2021/10/30 02:19:19;;;;;;;;;;;;;;;-0.58;64.68;100392.72;5037415;28;20470;-80
2021/10/30 02:21:45;;;;;;;;;;;;;;;-0.54;64.80;100383.03;5037211;28;19921;-77
2021/10/30 02:24:11;;;;;;;;;;;;;;;-0.43;64.68;100374.94;5037411;28;19973;-79
2021/10/30 02:26:37;;;;;;;;;;;;;;;-0.36;64.55;100382.69;5020584;28;20033;-78
2021/10/30 02:29:03;;;;;;;;;;;;;;;-0.39;64.65;100388.00;5037422;28;20394;-79
2021/10/30 02:31:29;;;;;;;;;;;;;;;-0.36;65.04;100382.69;5037505;28;20295;-78
2021/10/30 02:33:54;;;;;;;;;;;;;;;-0.34;65.28;100370.41;5020440;28;19956;-79
2021/10/30 02:36:20;;;;;;;;;;;;;;;-0.31;64.98;100370.31;5020235;28;19935;-80
2021/10/30 02:38:46;;;;;;;;;;;;;;;-0.27;65.46;100366.72;5020115;28;19928;-78
2021/10/30 02:41:12;;;;;;;;;;;;;;;-0.16;65.67;100363.03;5020260;28;19921;-78
2021/10/30 02:43:38;;;;;;;;;;;;;;;-0.06;65.00;100359.34;5036579;28;20292;-78
2021/10/30 02:46:04;;;;;;;;;;;;;;;-0.02;65.43;100371.50;5020145;28;20011;-79
2021/10/30 02:48:31;;;;;;;;;;;;;;;0.02;65.60;100367.94;5069839;28;19920;-79
2021/10/30 02:50:57;;;;;;;;;;;;;;;0.08;65.24;100375.69;5019981;28;19928;-78
2021/10/30 02:53:23;;;;;;;;;;;;;;;0.16;65.00;100360.63;5036685;28;19927;-78
2021/10/30 02:55:49;;;;;;;;;;;;;;;0.15;65.54;100358.91;5019903;28;19920;-79
2021/10/30 02:58:15;;;;;;;;;;;;;;;0.17;65.35;100357.09;5020381;28;20329;-78
2021/10/30 03:00:40;;;;;;;;;;;;;;;0.22;65.50;100355.22;5053242;28;20428;-78
2021/10/30 03:03:06;;;;;;;;;;;;;;;0.22;65.66;100355.22;5019828;28;19951;-78
2021/10/30 03:05:32;;;;;;;;;;;;;;;0.33;65.75;100356.75;5052769;28;19920;-79
2021/10/30 03:07:58;;;;;;;;;;;;;;;0.38;65.78;100365.44;5019871;28;19927;-79
2021/10/30 03:10:23;;;;;;;;;;;;;;;0.39;65.83;100367.16;5019720;28;19925;-79
2021/10/30 03:12:50;;;;;;;;;;;;;;;0.47;66.05;100360.81;5019569;28;19920;-79
2021/10/30 03:15:17;;;;;;;;;;;;;;;0.47;66.34;100365.22;5018917;28;20019;-79
2021/10/30 03:17:43;;;;;;;;;;;;;;;0.47;66.56;100362.56;5052396;28;20037;-79
2021/10/30 03:20:09;;;;;;;;;;;;;;;0.50;66.84;100343.25;5019487;28;20043;-79
2021/10/30 03:22:35;;;;;;;;;;;;;;;0.53;66.71;100359.81;5035844;28;19924;-78
2021/10/30 03:25:01;;;;;;;;;;;;;;;0.54;66.87;100363.31;5019327;28;19982;-77
2021/10/30 03:27:28;;;;;;;;;;;;;;;0.62;66.98;100367.50;5036110;28;19927;-78
2021/10/30 03:29:55;;;;;;;;;;;;;;;0.70;66.83;100360.28;5036301;28;20294;-78
2021/10/30 03:32:21;;;;;;;;;;;;;;;0.74;66.98;100358.44;5019503;28;19920;-77
2021/10/30 03:34:46;;;;;;;;;;;;;;;0.81;66.80;100354.75;5053053;28;20439;-79
2021/10/30 03:37:12;;;;;;;;;;;;;;;0.82;67.39;100355.63;5054684;28;19928;-80
2021/10/30 03:39:38;;;;;;;;;;;;;;;0.97;67.05;100350.84;5036544;28;19921;-81
2021/10/30 03:42:04;;;;;;;;;;;;;;;1.04;66.96;100348.94;5037292;28;19974;-81
2021/10/30 03:44:30;;;;;;;;;;;;;;;0.97;67.63;100353.47;5022106;28;19921;-82
2021/10/30 03:46:56;;;;;;;;;;;;;;;1.04;67.48;100354.19;5039361;28;19921;-79
2021/10/30 03:49:22;;;;;;;;;;;;;;;1.08;67.96;100340.06;5037916;28;20402;-80
2021/10/30 03:51:48;;;;;;;;;;;;;;;1.20;67.82;100341.50;5037149;28;19951;-78
2021/10/30 03:54:14;;;;;;;;;;;;;;;1.28;67.72;100338.66;5052394;28;20121;-80
2021/10/30 03:56:39;;;;;;;;;;;;;;;1.32;68.09;100332.44;5019565;28;19960;-80
2021/10/30 03:59:05;;;;;;;;;;;;;;;1.34;68.17;100330.63;5019472;28;19921;-78
2021/10/30 04:01:31;;;;;;;;;;;;;;;1.39;68.27;100339.25;5035527;28;19920;-80
2021/10/30 04:03:58;;;;;;;;;;;;;;;1.41;68.36;100340.09;5018418;28;19996;-79
2021/10/30 04:06:24;;;;;;;;;;;;;;;1.56;67.92;100334.41;5018150;28;19921;-84
2021/10/30 04:08:50;;;;;;;;;;;;;;;1.63;67.86;100330.69;5018154;28;19925;-80
2021/10/30 04:11:16;;;;;;;;;;;;;;;1.62;68.01;100334.25;5035561;28;20346;-81
2021/10/30 04:13:42;;;;;;;;;;;;;;;1.66;68.26;100325.34;5035709;28;19966;-83
2021/10/30 04:16:08;;;;;;;;;;;;;;;1.76;68.30;100322.44;5035427;28;19920;-81
2021/10/30 04:18:34;;;;;;;;;;;;;;;1.87;68.02;100323.00;5052982;28;19921;-81
2021/10/30 04:21:00;;;;;;;;;;;;;;;1.92;67.76;100316.69;5035120;28;19921;-79
2021/10/30 04:23:26;;;;;;;;;;;;;;;2.05;67.79;100327.75;5051734;28;19921;-81
2021/10/30 04:25:52;;;;;;;;;;;;;;;2.31;71.62;100328.75;5037254;28;20469;-76
2021/10/30 04:28:19;;;;;;;;;;;;;;;3.28;74.27;100321.19;5056091;28;20379;-79
2021/10/30 04:30:45;;;;;;;;;;;;;;;3.38;69.09;100314.66;5039669;28;19964;-80
2021/10/30 04:33:14;;;;;;;;;;;;;;;3.25;66.80;100311.59;5038899;28;20395;-80
2021/10/30 04:35:42;;;;;;;;;;;;;;;3.19;66.44;100313.56;5038962;28;19920;-78
2021/10/30 04:38:08;;;;;;;;;;;;;;;3.02;66.31;100307.09;5055614;28;19978;-80
2021/10/30 04:40:34;;;;;;;;;;;;;;;2.95;66.72;100310.00;5039043;28;20042;-81
2021/10/30 04:43:01;;;;;;;;;;;;;;;2.96;66.67;100304.66;5056158;28;19965;-83
2021/10/30 04:45:27;;;;;;;;;;;;;;;2.93;67.27;100310.03;5056016;28;19925;-81
2021/10/30 04:47:52;;;;;;;;;;;;;;;2.96;67.01;100317.84;5038716;28;19928;-81
2021/10/30 04:50:18;;;;;;;;;;;;;;;2.99;67.21;100333.59;5055029;28;20363;-78
2021/10/30 04:52:44;;;;;;;;;;;;;;;3.03;67.17;100332.59;5054906;28;19926;-78
2021/10/30 04:55:10;;;;;;;;;;;;;;;2.92;67.54;100322.38;5022689;28;20362;-80
2021/10/30 04:57:36;;;;;;;;;;;;;;;2.96;67.68;100320.50;5038273;28;19975;-78
2021/10/30 05:00:03;;;;;;;;;;;;;;;2.92;67.91;100316.22;5054915;28;19920;-80
2021/10/30 05:02:33;;;;;;;;;;;;;;;3.05;67.77;100319.34;5038155;28;19967;-78
2021/10/30 05:04:58;;;;;;;;;;;;;;;3.08;67.87;100317.44;5038112;28;20471;-81
2021/10/30 05:07:24;;;;;;;;;;;;;;;3.20;67.73;100310.00;5038181;28;20026;-80
2021/10/30 05:09:50;;;;;;;;;;;;;;;3.23;67.66;100309.91;5037870;28;19929;-79
2021/10/30 05:12:17;;;;;;;;;;;;;;;3.24;68.26;100311.66;5037690;28;20014;-79
2021/10/30 05:14:43;;;;;;;;;;;;;;;3.35;68.02;100310.38;5038106;28;20307;-83
2021/10/30 05:17:09;;;;;;;;;;;;;;;3.74;70.34;100309.00;5037662;28;19921;-77
2021/10/30 05:19:35;;;;;;;;;;;;;;;4.80;74.43;100296.00;5054389;28;19994;-79
2021/10/30 05:22:01;;;;;;;;;;;;;;;5.77;70.57;100300.69;5037716;28;20391;-78
2021/10/30 05:24:27;;;;;;;;;;;;;;;6.64;67.04;100292.25;5038263;28;20306;-80
2021/10/30 05:26:53;;;;;;;;;;;;;;;6.32;61.01;100282.25;5037852;28;19920;-79
2021/10/30 05:29:19;;;;;;;;;;;;;;;5.83;61.25;100270.38;5037793;28;20371;-79
2021/10/30 05:31:45;;;;;;;;;;;;;;;5.39;61.87;100270.56;5037891;28;20300;-79
2021/10/30 05:34:11;;;;;;;;;;;;;;;5.03;62.86;100259.75;5054568;28;19920;-79
2021/10/30 05:36:53;;;;;;;;;;;;;;;4.82;63.52;100258.88;5053248;28;20451;-78
2021/10/30 05:39:31;;;;;;;;;;;;;;;4.71;64.01;100256.69;5038071;28;19966;-79
2021/10/30 05:41:57;;;;;;;;;;;;;;;4.42;64.95;100257.84;5054281;28;19924;-78
2021/10/30 05:44:23;;;;;;;;;;;;;;;4.43;65.15;100262.22;5037527;28;19921;-79
2021/10/30 05:46:49;;;;;;;;;;;;;;;4.37;65.60;100255.41;5037675;28;20067;-77
2021/10/30 05:49:15;;;;;;;;;;;;;;;4.22;65.93;100266.59;5071448;28;19920;-79
2021/10/30 05:51:41;;;;;;;;;;;;;;;4.17;66.35;100255.31;5037855;28;19921;-78
2021/10/30 05:54:07;;;;;;;;;;;;;;;4.01;66.79;100268.28;5056398;28;19924;-77
2021/10/30 05:56:34;;;;;;;;;;;;;;;3.95;67.43;100259.69;5039814;28;19926;-79
2021/10/30 05:59:00;;;;;;;;;;;;;;;3.98;67.73;100257.81;5039893;28;20035;-79
2021/10/30 06:01:28;;;;;;;;;;;;;;;3.91;68.00;100256.31;5023349;28;20319;-79
2021/10/30 06:03:54;;;;;;;;;;;;;;;3.93;68.19;100259.78;5040346;28;20018;-78
2021/10/30 06:06:20;;;;;;;;;;;;;;;3.82;69.02;100272.53;5039898;28;19920;-79
2021/10/30 06:08:46;;;;;;;;;;;;;;;3.80;69.01;100269.97;5030848;28;20415;-78
2021/10/30 06:11:11;;;;;;;;;;;;;;;3.73;69.74;100251.75;5016611;28;19931;-78
2021/10/30 06:13:37;;;;;;;;;;;;;;;3.76;69.49;100246.31;5000082;28;20047;-78
2021/10/30 06:16:03;;;;;;;;;;;;;;;3.69;70.16;100231.63;4999954;28;19921;-79
2021/10/30 06:18:29;;;;;;;;;;;;;;;3.68;70.14;100228.09;4999609;28;19975;-80
2021/10/30 06:20:55;;;;;;;;;;;;;;;3.71;70.27;100232.41;4983170;28;20307;-79
2021/10/30 06:23:21;;;;;;;;;;;;;;;3.66;70.71;100224.66;4983489;28;20451;-77
2021/10/30 06:25:47;;;;;;;;;;;;;;;3.78;70.33;100218.03;5027276;28;19925;-77
2021/10/30 06:28:13;;;;;;;;;;;;;;;3.84;70.08;100204.59;5039423;28;20031;-80
2021/10/30 06:30:38;;;;;;;;;;;;;;;3.82;70.33;100193.19;5036891;28;19920;-77
2021/10/30 06:33:04;;;;;;;;;;;;;;;3.86;70.21;100189.50;5021233;28;19920;-79
2021/10/30 06:35:30;;;;;;;;;;;;;;;3.84;70.23;100191.38;5058301;28;19925;-79
2021/10/30 06:37:57;;;;;;;;;;;;;;;3.92;70.12;100201.66;5037270;28;20023;-79
2021/10/30 06:40:24;;;;;;;;;;;;;;;3.94;69.74;100202.44;5054050;28;19920;-79
2021/10/30 06:42:49;;;;;;;;;;;;;;;3.85;70.01;100201.03;5054616;28;20430;-79
2021/10/30 06:45:15;;;;;;;;;;;;;;;3.83;70.03;100197.56;5053955;28;20019;-79
2021/10/30 06:47:41;;;;;;;;;;;;;;;3.88;69.89;100203.56;5036714;28;19920;-79
2021/10/30 06:50:07;;;;;;;;;;;;;;;3.96;69.85;100198.81;5036885;28;19925;-76
2021/10/30 06:52:40;;;;;;;;;;;;;;;4.05;69.49;100192.28;5036265;28;19921;-81
2021/10/30 06:55:07;;;;;;;;;;;;;;;4.07;69.25;100178.09;5054321;28;19936;-78
2021/10/30 06:57:33;;;;;;;;;;;;;;;4.16;69.03;100173.34;5054432;28;20287;-80
2021/10/30 07:00:00;;;;;;;;;;;;;;;4.26;68.87;100178.22;5036242;28;19920;-78
2021/10/30 07:02:27;;;;;;;;;;;;;;;4.24;68.67;100181.84;5036101;28;19921;-80
2021/10/30 07:04:53;;;;;;;;;;;;;;;4.31;68.57;100186.81;5052754;28;19971;-79
2021/10/30 07:07:19;;;;;;;;;;;;;;;4.25;68.78;100188.84;5052835;28;19921;-79
2021/10/30 07:09:44;;;;;;;;;;;;;;;4.10;69.06;100177.97;5023321;28;19978;-78
2021/10/30 07:12:10;;;;;;;;;;;;;;;4.06;69.45;100171.09;5035943;28;19921;-80
2021/10/30 07:14:36;;;;;;;;;;;;;;;4.01;69.19;100167.75;5019568;28;20030;-81
2021/10/30 07:17:02;;;;;;;;;;;;;;;4.05;69.46;100172.00;5070114;28;19921;-80
2021/10/30 07:19:28;;;;;;;;;;;;;;;4.11;69.58;100184.13;5019743;28;20372;-80
2021/10/30 07:21:54;;;;;;;;;;;;;;;4.22;69.33;100170.47;5052671;28;19928;-78
2021/10/30 07:24:23;;;;;;;;;;;;;;;4.29;68.94;100164.00;5035496;28;19921;-80
2021/10/30 07:27:08;;;;;;;;;;;;;;;4.21;68.61;100174.88;5024980;28;20280;-77
2021/10/30 07:29:34;;;;;;;;;;;;;;;4.84;73.64;100170.47;5036053;28;19920;-77
2021/10/30 07:32:00;;;;;;;;;;;;;;;5.10;67.01;100164.03;5019151;28;20066;-80
2021/10/30 07:34:26;;;;;;;;;;;;;;;4.92;66.05;100156.88;5019202;28;19920;-78
2021/10/30 07:36:51;;;;;;;;;;;;;;;4.74;66.32;100152.38;5018920;28;19927;-79
2021/10/30 07:39:17;;;;;;;;;;;;;;;4.77;66.64;100136.34;5018856;28;19951;-78
2021/10/30 07:41:43;;;;;;;;;;;;;;;4.83;66.38;100144.91;5019244;28;19971;-78
2021/10/30 07:44:09;;;;;;;;;;;;;;;4.83;66.34;100146.69;5018706;28;19986;-79
2021/10/30 07:46:36;;;;;;;;;;;;;;;4.75;66.60;100149.69;5018207;28;20420;-78
2021/10/30 07:49:02;;;;;;;;;;;;;;;4.67;66.79;100135.91;5018619;28;19926;-76
2021/10/30 07:51:28;;;;;;;;;;;;;;;4.70;66.96;100133.13;5051648;28;19963;-78
2021/10/30 07:53:53;;;;;;;;;;;;;;;4.63;67.15;100132.53;5018934;28;19920;-80
2021/10/30 07:56:21;;;;;;;;;;;;;;;4.54;67.50;100130.25;5018668;28;19921;-78
2021/10/30 07:58:47;;;;;;;;;;;;;;;4.65;67.33;100127.16;5034902;28;20015;-78
2021/10/30 08:01:13;;;;;;;;;;;;;;;4.74;67.44;100139.13;5034684;28;19928;-78
2021/10/30 08:03:39;;;;;;;;;;;;;;;4.77;67.03;100136.34;5035030;28;19920;-77
2021/10/30 08:06:06;;;;;;;;;;;;;;;4.77;67.14;100134.56;5035027;28;20395;-77
2021/10/30 08:08:31;;;;;;;;;;;;;;;4.80;67.33;100130.94;5051960;28;19920;-79
2021/10/30 08:10:57;;;;;;;;;;;;;;;4.81;67.29;100127.34;5034766;28;19932;-75
2021/10/30 08:13:23;;;;;;;;;;;;;;;4.77;67.27;100125.75;5051711;28;19982;-79
2021/10/30 08:15:54;;;;;;;;;;;;;;;4.72;67.72;100123.31;5035170;28;19932;-79
2021/10/30 08:18:20;;;;;;;;;;;;;;;4.71;67.93;100118.09;5018810;28;19970;-83
2021/10/30 08:20:46;;;;;;;;;;;;;;;4.78;68.00;100125.72;5035475;28;20023;-78
2021/10/30 08:23:12;;;;;;;;;;;;;;;4.78;68.08;100122.22;5035459;28;20019;-77
2021/10/30 08:25:38;;;;;;;;;;;;;;;4.90;68.10;100116.38;5034745;28;19920;-78
2021/10/30 08:28:04;;;;;;;;;;;;;;;5.02;67.63;100120.25;5018183;28;19921;-76
2021/10/30 08:30:30;;;;;;;;;;;;;;;5.11;67.61;100115.41;5014642;28;20398;-77
2021/10/30 08:32:56;;;;;;;;;;;;;;;5.16;67.33;100117.84;5017350;28;19920;-77
2021/10/30 08:35:22;;;;;;;;;;;;;;;4.97;68.00;100117.81;5017992;28;20374;-78
2021/10/30 08:37:48;;;;;;;;;;;;;;;4.95;68.34;100124.94;5017822;28;19921;-77
2021/10/30 08:40:14;;;;;;;;;;;;;;;4.83;69.24;100122.84;5018198;28;19985;-77
2021/10/30 08:42:44;;;;;;;;;;;;;;;4.81;69.68;100122.03;5017904;28;20026;-76
2021/10/30 08:45:10;;;;;;;;;;;;;;;5.02;69.20;100115.81;5034184;28;19921;-78
2021/10/30 08:47:36;;;;;;;;;;;;;;;5.15;68.91;100109.94;5017210;28;20291;-78
2021/10/30 08:50:05;;;;;;;;;;;;;;;5.25;69.16;100116.56;5034320;28;19932;-76
2021/10/30 08:52:31;;;;;;;;;;;;;;;5.19;69.01;100114.16;5051299;28;19971;-78
2021/10/30 08:54:57;;;;;;;;;;;;;;;5.22;68.98;100114.91;5017637;28;19931;-78
2021/10/30 08:57:22;;;;;;;;;;;;;;;5.14;69.61;100114.38;5034299;28;19971;-77
2021/10/30 08:59:49;;;;;;;;;;;;;;;5.21;69.74;100117.63;5034432;28;19927;-77
2021/10/30 09:02:26;;;;;;;;;;;;;;;5.22;69.52;100129.94;5033038;28;19921;-79
2021/10/30 09:05:10;;;;;;;;;;;;;;;5.19;69.85;100123.00;4992187;28;20010;-77
2021/10/30 09:07:37;;;;;;;;;;;;;;;5.25;70.06;100121.84;5031126;28;20311;-76
2021/10/30 09:10:13;;;;;;;;;;;;;;;5.21;70.64;100125.59;5030751;28;19972;-77
2021/10/30 09:12:47;;;;;;;;;;;;;;;5.24;70.83;100120.16;5016089;28;19921;-78
2021/10/30 09:15:14;;;;;;;;;;;;;;;5.19;71.41;100119.47;5001482;28;19975;-77
2021/10/30 09:17:41;;;;;;;;;;;;;;;5.04;72.24;100116.63;5033648;28;19921;-78
2021/10/30 09:20:08;;;;;;;;;;;;;;;5.00;72.49;100117.69;5034278;28;19925;-77
2021/10/30 09:22:34;;;;;;;;;;;;;;;5.00;72.95;100106.19;5033948;28;20379;-78
2021/10/30 09:25:01;;;;;;;;;;;;;;;4.86;73.77;100115.63;5034073;28;19921;-76
2021/10/30 09:27:47;;;;;;;;;;;;;;;4.87;73.96;100112.03;5033923;28;20410;-75
2021/10/30 09:30:14;;;;;;;;;;;;;;;4.94;74.13;100104.69;5000897;28;19924;-77
2021/10/30 09:32:41;;;;;;;;;;;;;;;5.03;73.87;100096.31;5016721;28;19921;-78
2021/10/30 09:35:08;;;;;;;;;;;;;;;5.03;73.93;100096.31;5033725;28;19971;-77
2021/10/30 09:37:34;;;;;;;;;;;;;;;5.11;73.80;100088.91;5017214;28;19960;-78
2021/10/30 09:40:19;;;;;;;;;;;;;;;5.06;73.86;100090.88;5017014;28;20016;-76
2021/10/30 09:43:11;;;;;;;;;;;;;;;5.22;73.59;100090.19;5033656;28;19920;-77
2021/10/30 09:45:41;;;;;;;;;;;;;;;5.28;73.32;100095.22;5015928;28;19975;-76
2021/10/30 09:48:07;;;;;;;;;;;;;;;5.24;73.50;100077.72;5000223;28;20378;-78
2021/10/30 09:50:33;;;;;;;;;;;;;;;5.35;73.37;100096.66;5033323;28;20020;-77
2021/10/30 09:52:59;;;;;;;;;;;;;;;5.36;73.37;100095.72;5033385;28;19927;-77
2021/10/30 09:55:26;;;;;;;;;;;;;;;5.46;73.13;100089.06;5019351;28;20384;-74
2021/10/30 09:58:04;;;;;;;;;;;;;;;5.35;73.46;100092.22;5029040;28;20012;-77
2021/10/30 10:00:33;;;;;;;;;;;;;;;5.48;73.48;100079.22;5000423;28;19928;-78
2021/10/30 10:03:00;;;;;;;;;;;;;;;5.56;73.17;100090.31;5015297;28;19921;-76
2021/10/30 10:05:27;;;;;;;;;;;;;;;5.70;72.76;100094.13;5033926;28;20027;-77
2021/10/30 10:07:53;;;;;;;;;;;;;;;5.64;72.73;100097.06;5033456;28;20384;-77
2021/10/30 10:10:19;;;;;;;;;;;;;;;5.59;72.85;100095.47;5016992;28;19925;-78
2021/10/30 10:12:45;;;;;;;;;;;;;;;5.49;73.31;100099.53;5033184;28;19921;-75
2021/10/30 10:15:12;;;;;;;;;;;;;;;5.45;73.35;100103.22;5020221;28;19921;-76
2021/10/30 10:17:38;;;;;;;;;;;;;;;5.56;73.15;100106.22;5009426;28;19931;-76
2021/10/30 10:20:05;;;;;;;;;;;;;;;5.55;73.51;100099.22;5035390;28;20016;-77
2021/10/30 10:22:31;;;;;;;;;;;;;;;5.62;73.15;100086.53;5036601;28;20406;-76
2021/10/30 10:25:16;;;;;;;;;;;;;;;5.79;72.98;100091.91;5019623;28;19925;-77
2021/10/30 10:27:42;;;;;;;;;;;;;;;5.89;72.60;100078.16;5052798;28;20399;-77
2021/10/30 10:30:08;;;;;;;;;;;;;;;5.90;72.47;100083.38;5036602;28;19921;-77
2021/10/30 10:32:36;;;;;;;;;;;;;;;5.94;72.18;100085.03;4999064;28;20311;-77
2021/10/30 10:35:03;;;;;;;;;;;;;;;5.82;72.48;100090.88;4994998;28;19924;-75
2021/10/30 10:37:29;;;;;;;;;;;;;;;5.74;72.91;100093.91;5026485;28;19920;-77
2021/10/30 10:39:59;;;;;;;;;;;;;;;5.73;73.01;100099.28;4994137;28;20069;-76
2021/10/30 10:42:35;;;;;;;;;;;;;;;5.77;73.04;100082.28;4994773;28;19955;-76
2021/10/30 10:45:02;;;;;;;;;;;;;;;5.79;73.47;100075.09;5043721;28;19921;-76
2021/10/30 10:47:35;;;;;;;;;;;;;;;5.83;73.28;100076.69;5026663;28;20381;-76
2021/10/30 10:50:13;;;;;;;;;;;;;;;5.85;73.14;100085.41;5026209;28;19924;-77
2021/10/30 10:53:03;;;;;;;;;;;;;;;5.96;73.05;100076.97;5026614;28;19986;-76
2021/10/30 10:55:30;;;;;;;;;;;;;;;5.94;72.96;100079.72;5024819;28;19956;-76
2021/10/30 10:58:02;;;;;;;;;;;;;;;5.99;72.90;100085.63;5028043;28;20090;-78
2021/10/30 11:00:29;;;;;;;;;;;;;;;6.00;72.68;100074.09;5042254;28;19964;-77
2021/10/30 11:02:58;;;;;;;;;;;;;;;6.03;72.90;100081.91;5009508;28;19975;-77
2021/10/30 11:05:30;;;;;;;;;;;;;;;6.02;72.92;100071.38;5025713;28;19943;-77
2021/10/30 11:07:56;;;;;;;;;;;;;;;6.06;72.90;100068.47;5029729;28;19925;-77
2021/10/30 11:10:27;;;;;;;;;;;;;;;6.12;72.91;100058.47;5062742;28;19982;-78
2021/10/30 11:13:04;;;;;;;;;;;;;;;6.19;72.85;100063.41;5011662;28;19964;-76
2021/10/30 11:15:38;;;;;;;;;;;;;;;6.19;72.81;100059.91;5026871;28;19979;-77
2021/10/30 11:18:13;;;;;;;;;;;;;;;6.17;72.73;100061.75;5014160;28;19928;-77
2021/10/30 11:20:42;;;;;;;;;;;;;;;6.16;73.17;100062.69;5030891;28;20338;-75
2021/10/30 11:23:17;;;;;;;;;;;;;;;6.08;73.03;100055.13;5024329;28;19964;-76
2021/10/30 11:25:43;;;;;;;;;;;;;;;6.20;72.94;100058.94;5027418;28;20007;-77
2021/10/30 11:28:10;;;;;;;;;;;;;;;6.24;73.06;100050.78;5030754;28;19952;-77
2021/10/30 11:30:40;;;;;;;;;;;;;;;6.25;73.14;100062.25;5035427;28;19921;-77
2021/10/30 11:33:24;;;;;;;;;;;;;;;6.24;72.85;100055.19;5018906;28;19932;-77
2021/10/30 11:36:04;;;;;;;;;;;;;;;6.21;73.01;100053.59;5051519;28;20299;-77
2021/10/30 11:38:34;;;;;;;;;;;;;;;6.16;72.94;100058.25;5018622;28;19974;-76
2021/10/30 11:41:00;;;;;;;;;;;;;;;6.14;73.22;100059.28;5019132;28;19920;-75
2021/10/30 11:43:33;;;;;;;;;;;;;;;6.10;73.27;100055.06;5052370;28;19975;-76
2021/10/30 11:46:00;;;;;;;;;;;;;;;6.06;73.47;100065.81;5035953;28;20287;-75
2021/10/30 11:48:45;;;;;;;;;;;;;;;6.21;73.18;100066.84;5035825;28;20023;-76
2021/10/30 11:51:11;;;;;;;;;;;;;;;5.98;73.65;100073.31;5020336;28;19920;-77
2021/10/30 11:53:44;;;;;;;;;;;;;;;5.71;74.54;100072.81;5021999;28;19974;-77
2021/10/30 11:56:13;;;;;;;;;;;;;;;5.81;74.66;100070.59;5037345;28;19981;-76
2021/10/30 11:58:40;;;;;;;;;;;;;;;5.75;74.71;100065.56;5036418;28;19969;-77
2021/10/30 12:01:18;;;;;;;;;;;;;;;5.85;74.66;100077.47;5020335;28;20408;-75
2021/10/30 12:03:44;;;;;;;;;;;;;;;5.86;74.78;100073.88;5035786;28;19920;-77
2021/10/30 12:06:10;;;;;;;;;;;;;;;5.82;74.52;100078.47;5035434;28;19926;-77
2021/10/30 12:08:36;;;;;;;;;;;;;;;5.73;74.95;100086.03;5018624;28;19920;-77
2021/10/30 12:11:05;;;;;;;;;;;;;;;5.78;74.78;100074.25;5019208;28;19932;-76
2021/10/30 12:13:34;;;;;;;;;;;;;;;5.69;75.15;100079.16;5018577;28;20403;-76
2021/10/30 12:16:03;;;;;;;;;;;;;;;5.75;74.93;100085.00;5018655;28;19932;-76
2021/10/30 12:18:29;;;;;;;;;;;;;;;5.69;75.17;100080.00;5034742;28;19924;-77
2021/10/30 12:20:59;;;;;;;;;;;;;;;5.69;75.07;100073.84;5030356;28;19920;-76
2021/10/30 12:23:26;;;;;;;;;;;;;;;5.65;75.32;100082.88;5034447;28;19916;-77
2021/10/30 12:26:18;;;;;;;;;;;;;;;5.68;75.42;100078.28;5018562;28;19970;-77
2021/10/30 12:28:45;;;;;;;;;;;;;;;5.66;75.49;100080.16;5049390;28;19920;-76
2021/10/30 12:31:16;;;;;;;;;;;;;;;5.60;75.77;100076.00;5018359;28;19926;-75
2021/10/30 12:33:43;;;;;;;;;;;;;;;5.57;76.09;100089.41;5035254;28;19962;-76
2021/10/30 12:36:09;;;;;;;;;;;;;;;5.57;75.97;100076.16;5035256;28;19920;-76
2021/10/30 12:38:39;;;;;;;;;;;;;;;5.60;76.07;100076.00;5021158;28;20016;-76
2021/10/30 12:41:17;;;;;;;;;;;;;;;5.62;76.15;100083.03;5034988;28;19924;-77
2021/10/30 12:43:51;;;;;;;;;;;;;;;5.53;76.42;100079.88;5020467;28;19960;-76
2021/10/30 12:46:17;;;;;;;;;;;;;;;5.52;76.37;100091.41;5019340;28;20041;-77